KSPA

Details ICAO KSPA
Name SPARTANBURG DOWNTOWN MEM
Region United States
Timezone America/New_York (UTC-4.0)
Plans Departing 6
Arriving 10
Stats Elevation 800 ft / 244 m (AMSL)
Location 34.915732° -81.956493°
Runways 1
Magnetic Variation 6.997° W
Sunrise 2018-05-26 10:19:07 UTC / 2018-05-26 06:19:07 Local
Sunset 2018-05-27 00:33:33 UTC / 2018-05-26 20:33:33 Local
Advertisement - Login to hide

Runways

ID Width Length Bearing (true) Bearing (mag) Surface Threshold Offset Overrun Length
05 100 ft / 30 m 5,205 ft / 1,587 m 41.44° 48.44° Asphalt 0 ft / 0 m 0 ft / 0 m
23 100 ft / 30 m 5,205 ft / 1,587 m 221.45° 228.45° Asphalt 0 ft / 0 m 0 ft / 0 m

Map

Weather


0- 5 10 15 20 25 30 35+ Temperature / ° C

Clouds and Precipitation
Forecast for 2018-05-26 18:00 UTC. Updated 31 minutes ago

Ground ~20,000 ft ~40,000 ft Winds

METAR

KSPA 261735Z AUTO 25007KT 10SM SCT028 BKN039 BKN048 27/20 A2996 RMK AO2

TAF

Not found

Frequencies

Recorded 133.92 MHz AWOS 3
Clearance 120.55 MHz CLNC DEL
Unicom 123.00 MHz CTAF/UNICOM
Approach 119.40 MHz GREER APP/DEP
Warning: Do not use this data for real-world aviation or navigation. No guarantee of current accuracy is given.